Time;durP1;ratioP1;P1;durP2;ratioP2;P2;SDS_P1;SDS_P2;PMS_P1;PMS_P2;Temp;Humidity;BMP_temperature;BMP_pressure;BME280_temperature;BME280_humidity;BME280_pressure;Samples;Min_cycle;Max_cycle;Signal;HPM_P1;HPM_P2
2023/07/29 00:02:06;;;;;;;6.40;3.50;;;;;;;20.48;68.84;98398.09;221597;193;665961;-64
2023/07/29 00:07:09;;;;;;;5.20;3.70;;;;;;;20.41;69.46;98399.33;223859;181;136957;-64
2023/07/29 00:12:13;;;;;;;6.30;3.60;;;;;;;20.40;69.76;98399.93;223796;181;143938;-64
2023/07/29 00:17:16;;;;;;;7.10;5.30;;;;;;;20.38;69.72;98406.43;223883;181;138833;-65
2023/07/29 00:22:19;;;;;;;5.30;3.70;;;;;;;20.35;69.79;98404.79;223945;181;136744;-65
2023/07/29 00:27:22;;;;;;;7.50;3.70;;;;;;;20.32;69.96;98401.34;223879;181;143862;-62
2023/07/29 00:32:29;;;;;;;4.40;3.40;;;;;;;20.26;70.00;98394.84;223802;181;139456;-63
2023/07/29 00:37:32;;;;;;;5.70;3.00;;;;;;;20.20;70.30;98385.77;224023;181;135944;-63
2023/07/29 00:42:35;;;;;;;4.90;3.30;;;;;;;20.16;70.51;98388.95;223809;181;143504;-62
2023/07/29 00:47:39;;;;;;;5.30;3.70;;;;;;;20.17;70.55;98392.13;223845;181;138305;-62
2023/07/29 00:52:42;;;;;;;4.40;2.90;;;;;;;20.19;70.37;98394.76;223800;181;136579;-62
2023/07/29 01:02:08;;;;;;;3.10;2.70;;;;;;;20.16;70.36;98396.88;221628;191;665912;-63
2023/07/29 01:07:21;;;;;;;6.70;2.60;;;;;;;20.05;70.72;98394.65;223318;187;136534;-62
2023/07/29 01:12:32;;;;;;;3.50;2.40;;;;;;;19.98;70.83;98401.20;223451;185;145665;-63
2023/07/29 01:17:46;;;;;;;3.00;2.40;;;;;;;19.93;71.13;98400.30;223513;185;138583;-61
2023/07/29 01:22:49;;;;;;;3.90;2.70;;;;;;;19.92;71.25;98397.60;223957;180;136952;-63
2023/07/29 01:27:52;;;;;;;4.30;2.90;;;;;;;19.87;71.37;98398.85;223738;181;143900;-61
2023/07/29 01:33:06;;;;;;;7.70;3.00;;;;;;;19.85;71.55;98396.77;223863;177;138234;-61
2023/07/29 01:38:16;;;;;;;4.10;3.20;;;;;;;19.83;71.74;98397.67;224093;181;136141;-62
2023/07/29 01:43:23;;;;;;;6.50;3.10;;;;;;;19.79;72.14;98405.17;224031;181;143408;-62
2023/07/29 01:48:30;;;;;;;4.80;3.00;;;;;;;19.77;72.19;98401.77;223911;181;139714;-62
2023/07/29 01:53:33;;;;;;;6.10;3.10;;;;;;;19.77;72.33;98403.75;223850;181;136512;-62
2023/07/29 01:58:36;;;;;;;10.10;3.40;;;;;;;19.76;72.40;98405.23;223699;181;145686;-63
2023/07/29 02:03:40;;;;;;;4.90;3.00;;;;;;;19.69;72.72;98402.27;223629;182;140226;-62
2023/07/29 02:08:43;;;;;;;7.10;3.40;;;;;;;19.63;72.94;98402.53;223712;181;136828;-62
2023/07/29 02:13:46;;;;;;;6.40;2.60;;;;;;;19.59;73.02;98399.23;223751;181;145563;-62
2023/07/29 02:18:52;;;;;;;3.40;2.90;;;;;;;19.57;73.31;98401.42;223742;181;138967;-63
2023/07/29 02:23:58;;;;;;;6.10;3.10;;;;;;;19.61;73.39;98405.38;223696;181;137059;-62
2023/07/29 02:29:01;;;;;;;6.30;2.90;;;;;;;19.74;73.27;98412.87;223838;181;147366;-62
2023/07/29 02:34:05;;;;;;;7.60;3.10;;;;;;;19.80;73.41;98406.75;223805;181;138410;-61
2023/07/29 02:39:08;;;;;;;6.60;3.10;;;;;;;19.79;73.02;98403.52;223808;181;136289;-62
2023/07/29 02:44:19;;;;;;;5.90;2.80;;;;;;;19.71;72.92;98403.45;223913;181;145703;-63
2023/07/29 02:49:23;;;;;;;7.00;2.90;;;;;;;19.65;73.08;98409.77;223865;181;139063;-62
2023/07/29 02:54:26;;;;;;;9.20;3.10;;;;;;;19.65;73.23;98416.37;223816;181;136646;-62
2023/07/29 03:02:08;;;;;;;5.80;3.00;;;;;;;19.70;73.47;98416.71;219933;189;665927;-62
2023/07/29 03:07:12;;;;;;;5.20;3.20;;;;;;;19.65;73.37;98416.00;223736;183;136492;-62
2023/07/29 03:12:15;;;;;;;6.70;3.80;;;;;;;19.64;73.59;98420.09;223614;183;145561;-62
2023/07/29 03:17:18;;;;;;;6.30;3.30;;;;;;;19.62;73.62;98425.31;223662;184;138753;-62
2023/07/29 03:22:21;;;;;;;5.10;3.20;;;;;;;19.60;73.84;98428.18;223687;183;137324;-62
2023/07/29 03:27:24;;;;;;;5.40;3.40;;;;;;;19.66;73.83;98434.08;223837;180;143884;-62
2023/07/29 03:32:28;;;;;;;5.50;3.40;;;;;;;19.75;73.69;98437.63;223923;181;138433;-63
2023/07/29 03:37:31;;;;;;;7.80;3.40;;;;;;;19.78;73.38;98439.66;223952;181;136865;-63
2023/07/29 03:42:36;;;;;;;5.80;3.80;;;;;;;19.78;73.51;98439.46;223930;180;143499;-62
2023/07/29 03:47:50;;;;;;;3.90;2.90;;;;;;;19.80;73.34;98435.10;223820;182;138425;-63
2023/07/29 03:52:53;;;;;;;4.30;3.10;;;;;;;19.80;73.37;98435.27;223810;181;140548;-62
2023/07/29 03:57:57;;;;;;;5.70;3.20;;;;;;;19.82;73.25;98433.35;223743;181;145830;-62
2023/07/29 04:03:01;;;;;;;5.60;3.30;;;;;;;19.90;73.21;98442.88;223749;182;138093;-61
2023/07/29 04:08:04;;;;;;;5.40;3.20;;;;;;;19.88;73.05;98449.38;223684;182;136994;-63
2023/07/29 04:13:07;;;;;;;8.70;3.70;;;;;;;19.83;73.06;98455.08;223890;181;146097;-61
2023/07/29 04:18:12;;;;;;;5.40;3.50;;;;;;;19.81;73.16;98459.27;223805;182;138713;-62
2023/07/29 04:23:16;;;;;;;6.20;3.70;;;;;;;19.84;73.42;98460.56;223786;181;136844;-62
2023/07/29 04:28:19;;;;;;;5.80;3.70;;;;;;;19.92;73.29;98462.98;223724;181;145356;-63
2023/07/29 04:33:22;;;;;;;10.10;4.00;;;;;;;19.97;73.01;98456.21;223798;181;139997;-62
2023/07/29 04:38:34;;;;;;;6.40;4.10;;;;;;;20.03;72.99;98454.27;223725;181;137216;-62
2023/07/29 04:43:37;;;;;;;7.70;4.30;;;;;;;20.08;73.02;98463.50;223823;181;145665;-62
2023/07/29 07:05:28;;;;;;;5.20;3.30;;;;;;;22.35;66.69;98501.52;222124;193;666212;-63
2023/07/29 07:10:33;;;;;;;3.90;2.80;;;;;;;22.42;66.39;98498.08;224164;180;136120;-64
2023/07/29 07:15:36;;;;;;;4.60;2.70;;;;;;;22.51;66.02;98491.40;223998;180;144185;-63
2023/07/29 07:20:40;;;;;;;5.90;2.70;;;;;;;22.67;66.10;98491.98;224018;180;139991;-63
2023/07/29 07:25:43;;;;;;;4.00;2.80;;;;;;;22.83;65.37;98485.92;223924;181;136635;-64
2023/07/29 07:30:46;;;;;;;5.00;2.50;;;;;;;22.99;65.09;98489.29;223971;180;143345;-64
2023/07/29 07:35:49;;;;;;;6.00;2.30;;;;;;;23.13;64.26;98491.45;223939;180;138374;-66
2023/07/29 07:40:57;;;;;;;3.90;2.60;;;;;;;23.23;63.82;98489.60;224053;180;136582;-66
2023/07/29 07:46:01;;;;;;;4.60;2.10;;;;;;;23.34;63.74;98487.83;223794;180;145154;-64
2023/07/29 07:51:12;;;;;;;3.50;2.50;;;;;;;23.46;63.19;98488.88;223902;180;138805;-63
2023/07/29 07:56:16;;;;;;;3.00;2.20;;;;;;;23.57;63.02;98491.48;223769;180;138855;-63
2023/07/29 08:01:19;;;;;;;3.00;2.50;;;;;;;23.70;62.00;98479.05;223599;182;145116;-65
2023/07/29 08:06:23;;;;;;;4.30;2.20;;;;;;;23.80;61.48;98477.89;223651;180;139618;-67
2023/07/29 08:11:26;;;;;;;4.90;2.60;;;;;;;23.91;61.09;98473.89;223636;181;136574;-66
2023/07/29 08:16:29;;;;;;;3.10;2.50;;;;;;;24.01;60.72;98470.42;223701;181;147042;-64
2023/07/29 08:21:32;;;;;;;3.40;2.80;;;;;;;24.10;60.54;98470.91;223696;181;139044;-64
2023/07/29 08:26:35;;;;;;;5.40;2.80;;;;;;;24.19;59.72;98468.45;223729;181;136455;-65
2023/07/29 08:31:39;;;;;;;3.70;2.30;;;;;;;24.21;59.98;98465.84;223701;181;145233;-65
2023/07/29 08:36:42;;;;;;;3.70;2.30;;;;;;;24.29;59.89;98469.25;223628;181;139037;-67
2023/07/29 08:41:58;;;;;;;5.70;2.50;;;;;;;24.38;59.73;98462.51;223611;181;137145;-64
2023/07/29 08:47:01;;;;;;;5.40;2.20;;;;;;;24.52;59.28;98455.67;223695;181;145833;-64
2023/07/29 08:52:06;;;;;;;2.50;2.00;;;;;;;24.52;58.17;98450.95;223752;181;138996;-64
2023/07/29 08:57:10;;;;;;;4.00;2.10;;;;;;;24.58;57.70;98446.23;223770;181;137250;-65
2023/07/29 09:02:13;;;;;;;4.50;1.70;;;;;;;24.62;57.78;98445.19;223752;181;145427;-63
2023/07/29 09:07:17;;;;;;;2.20;1.60;;;;;;;24.60;56.58;98445.48;223713;181;140457;-63
2023/07/29 09:12:20;;;;;;;4.30;1.80;;;;;;;24.58;55.86;98441.48;223709;181;137720;-63
2023/07/29 09:17:24;;;;;;;1.60;1.40;;;;;;;24.68;55.39;98439.67;223742;181;146301;-63
2023/07/29 09:22:27;;;;;;;2.70;1.50;;;;;;;24.74;54.64;98433.72;223682;181;138992;-63
2023/07/29 09:27:32;;;;;;;1.50;1.30;;;;;;;25.00;54.65;98426.32;223799;181;139206;-63
2023/07/29 09:32:39;;;;;;;1.50;1.30;;;;;;;25.33;54.49;98420.16;223776;181;145324;-64
2023/07/29 09:37:43;;;;;;;4.50;1.40;;;;;;;25.47;52.77;98415.98;223804;181;138721;-64
2023/07/29 09:42:53;;;;;;;6.50;1.60;;;;;;;25.52;52.66;98410.33;223688;181;137327;-63
2023/07/29 09:47:58;;;;;;;2.10;1.70;;;;;;;25.63;53.04;98412.83;223759;181;145323;-64
2023/07/29 09:53:02;;;;;;;3.70;1.80;;;;;;;25.78;52.98;98415.04;223738;181;139594;-63
2023/07/29 10:02:16;;;;;;;2.30;1.70;;;;;;;25.97;52.92;98412.85;221769;192;666367;-63
2023/07/29 10:07:20;;;;;;;2.00;1.70;;;;;;;26.09;52.76;98406.64;223624;183;137966;-64
2023/07/29 10:12:28;;;;;;;4.10;1.70;;;;;;;26.26;53.48;98401.60;223615;183;143305;-64
2023/07/29 10:17:37;;;;;;;2.10;1.60;;;;;;;26.50;52.62;98397.10;223775;183;139455;-64
2023/07/29 10:22:43;;;;;;;2.60;1.60;;;;;;;26.45;52.50;98398.69;223690;183;136741;-64
2023/07/29 10:27:53;;;;;;;1.80;1.60;;;;;;;26.28;52.69;98401.29;223758;182;143382;-63
2023/07/29 10:33:01;;;;;;;2.10;1.60;;;;;;;26.15;51.74;98401.98;223790;183;139759;-64
2023/07/29 10:38:05;;;;;;;1.90;1.60;;;;;;;26.06;50.54;98408.20;223804;182;136371;-64
2023/07/29 10:43:10;;;;;;;2.20;1.70;;;;;;;25.99;50.94;98405.80;223761;183;143436;-63
2023/07/29 10:48:35;;;;;;;4.20;1.60;;;;;;;25.99;51.22;98409.38;223719;183;139858;-64
2023/07/29 10:53:38;;;;;;;2.90;1.40;;;;;;;25.92;50.75;98413.19;223780;183;136831;-65
2023/07/29 10:58:43;;;;;;;;;;;;;;;25.85;50.82;98410.62;223761;183;145353;-66
2023/07/29 11:04:23;;;;;;;1.90;1.30;;;;;;;25.76;50.71;98404.71;223573;183;138473;-65
2023/07/29 11:09:41;;;;;;;1.90;1.60;;;;;;;25.69;51.28;98399.20;223492;183;136990;-65
2023/07/29 11:14:44;;;;;;;2.80;1.60;;;;;;;25.64;51.96;98394.71;223593;183;145278;-68
2023/07/29 11:19:50;;;;;;;2.90;2.00;;;;;;;25.62;52.76;98389.89;223568;183;139416;-70
2023/07/29 11:24:53;;;;;;;4.20;1.70;;;;;;;25.71;53.45;98387.73;223635;183;136821;-67
2023/07/29 11:29:59;;;;;;;3.30;1.80;;;;;;;26.18;53.29;98383.21;223643;183;145738;-69
2023/07/29 11:35:04;;;;;;;2.60;1.80;;;;;;;26.58;53.15;98373.39;223627;181;139942;-70
2023/07/29 11:40:11;;;;;;;4.40;1.60;;;;;;;26.51;52.71;98369.29;223664;181;136317;-65
2023/07/29 11:45:14;;;;;;;3.40;1.50;;;;;;;26.37;51.32;98370.56;223703;182;145622;-66
2023/07/29 11:50:20;;;;;;;2.20;1.90;;;;;;;26.25;51.16;98368.30;223707;183;138464;-66
2023/07/29 11:55:24;;;;;;;1.80;1.50;;;;;;;26.22;51.80;98371.34;223721;181;137176;-64
2023/07/29 12:00:27;;;;;;;2.10;1.80;;;;;;;26.13;52.19;98383.19;223551;181;145801;-63
2023/07/29 12:05:31;;;;;;;3.00;1.80;;;;;;;26.01;53.16;98387.55;223656;181;138975;-64
2023/07/29 12:10:34;;;;;;;2.60;1.90;;;;;;;25.88;53.90;98396.82;223613;181;136824;-69
2023/07/29 12:15:39;;;;;;;2.50;2.10;;;;;;;25.80;54.15;98392.27;223671;181;146217;-66
2023/07/29 12:20:43;;;;;;;3.90;1.90;;;;;;;25.74;54.61;98393.59;223640;181;138233;-65
2023/07/29 12:25:46;;;;;;;2.10;1.30;;;;;;;25.60;54.93;98393.13;223597;181;137061;-64
2023/07/29 12:30:58;;;;;;;2.90;1.30;;;;;;;25.45;54.57;98396.44;223641;182;145292;-65
2023/07/29 12:36:08;;;;;;;4.40;1.30;;;;;;;25.27;54.02;98401.69;223651;181;139902;-65
2023/07/29 12:41:12;;;;;;;1.40;1.00;;;;;;;25.11;53.58;98393.14;223664;181;137566;-63
2023/07/29 12:46:15;;;;;;;2.70;1.00;;;;;;;25.01;53.29;98385.17;223692;181;146607;-63
2023/07/29 12:51:19;;;;;;;1.20;0.90;;;;;;;24.96;52.59;98384.57;223733;181;138289;-63
2023/07/29 12:56:23;;;;;;;2.90;0.90;;;;;;;24.94;52.71;98380.33;223745;182;137116;-62
2023/07/29 13:01:27;;;;;;;1.50;1.40;;;;;;;24.95;53.62;98375.14;223699;181;146168;-63
2023/07/29 13:06:30;;;;;;;2.30;1.90;;;;;;;24.97;54.64;98369.74;223585;182;141306;-63
2023/07/29 13:11:35;;;;;;;1.60;1.50;;;;;;;25.00;55.37;98368.25;223537;182;137102;-63
2023/07/29 13:16:38;;;;;;;4.00;1.80;;;;;;;25.02;56.50;98370.39;223571;182;145369;-63
2023/07/29 13:21:42;;;;;;;9.00;1.80;;;;;;;25.04;57.05;98363.36;223605;182;139138;-63
2023/07/29 13:26:55;;;;;;;1.90;1.70;;;;;;;25.09;57.05;98358.73;223716;182;136915;-63
2023/07/29 13:32:26;;;;;;;2.50;1.50;;;;;;;25.23;57.88;98345.43;223747;182;157427;-63
2023/07/29 13:37:29;;;;;;;2.20;1.60;;;;;;;25.32;57.35;98333.87;223638;181;138460;-65
2023/07/29 13:42:33;;;;;;;2.70;1.70;;;;;;;25.40;57.65;98330.67;223634;181;139616;-66
2023/07/29 13:47:50;;;;;;;3.50;1.60;;;;;;;25.70;56.97;98330.92;223764;181;145008;-67
2023/07/29 13:52:55;;;;;;;3.20;1.70;;;;;;;25.85;56.14;98329.54;223662;181;140968;-66
2023/07/29 13:58:05;;;;;;;3.50;1.60;;;;;;;25.86;55.09;98331.68;223622;182;137396;-65
2023/07/29 14:03:17;;;;;;;3.90;1.80;;;;;;;25.82;55.53;98336.42;223537;181;145951;-65
2023/07/29 14:08:27;;;;;;;5.30;1.80;;;;;;;25.77;56.17;98337.61;223765;182;138895;-65
2023/07/29 14:13:30;;;;;;;6.20;1.80;;;;;;;25.75;56.36;98326.24;223720;181;139385;-65
2023/07/29 14:18:33;;;;;;;2.50;1.90;;;;;;;25.66;56.01;98325.19;223765;182;146763;-64
2023/07/29 14:23:38;;;;;;;1.70;1.50;;;;;;;25.62;56.09;98321.47;223653;182;138757;-63
2023/07/29 14:28:45;;;;;;;1.90;1.50;;;;;;;25.64;55.75;98313.36;223689;181;139529;-64
2023/07/29 14:33:49;;;;;;;1.90;1.50;;;;;;;25.65;55.33;98312.61;223643;182;146420;-64
2023/07/29 14:38:52;;;;;;;2.50;1.70;;;;;;;25.66;54.81;98310.84;223701;181;138578;-64
2023/07/29 14:43:56;;;;;;;2.40;1.80;;;;;;;25.59;55.71;98332.23;223769;182;137657;-66
2023/07/29 14:48:59;;;;;;;5.40;1.80;;;;;;;25.29;57.17;98351.14;223716;181;146666;-66
2023/07/29 14:54:02;;;;;;;3.40;1.90;;;;;;;25.02;58.36;98354.77;223692;181;138588;-65
2023/07/29 14:59:06;;;;;;;4.30;1.50;;;;;;;24.77;59.56;98355.55;223584;181;137521;-65
2023/07/29 15:04:26;;;;;;;1.50;1.20;;;;;;;24.58;60.26;98343.95;223503;181;145274;-62
2023/07/29 15:09:33;;;;;;;1.90;1.40;;;;;;;24.54;60.36;98339.66;223386;182;140556;-63
2023/07/29 15:14:43;;;;;;;7.20;1.80;;;;;;;24.68;61.00;98344.51;223712;182;137034;-63
2023/07/29 15:19:51;;;;;;;14.20;2.50;;;;;;;24.82;61.37;98341.80;223722;182;145837;-63
2023/07/29 15:25:02;;;;;;;7.00;2.00;;;;;;;24.94;61.81;98337.53;223650;182;138832;-64
2023/07/29 15:30:12;;;;;;;4.50;1.80;;;;;;;24.96;62.33;98337.16;223659;182;136730;-67
2023/07/29 15:35:39;;;;;;;2.80;1.80;;;;;;;25.00;62.98;98338.69;223621;182;145480;-64
2023/07/29 15:40:51;;;;;;;5.70;3.00;;;;;;;24.98;62.96;98333.14;223656;182;138330;-67
2023/07/29 15:45:58;;;;;;;4.60;2.10;;;;;;;25.04;62.26;98330.98;223636;182;137549;-66
2023/07/29 15:51:14;;;;;;;2.00;1.80;;;;;;;25.05;61.66;98329.69;223833;182;145337;-62
2023/07/29 15:56:29;;;;;;;7.60;1.90;;;;;;;25.04;60.50;98325.11;223839;182;142059;-64
2023/07/29 16:01:36;;;;;;;3.50;1.80;;;;;;;25.07;59.96;98318.84;223587;182;137475;-63
2023/07/29 16:06:46;;;;;;;20.00;15.60;;;;;;;25.07;58.78;98317.84;223668;182;145127;-63
2023/07/29 16:11:59;;;;;;;4.60;1.90;;;;;;;25.06;58.64;98318.88;223618;182;139034;-65
2023/07/29 16:17:18;;;;;;;2.40;1.50;;;;;;;24.94;58.15;98319.48;223603;182;137364;-66
2023/07/29 16:22:34;;;;;;;2.00;1.40;;;;;;;24.84;58.26;98311.02;223667;181;145289;-63
2023/07/29 16:27:42;;;;;;;;;;;;;;;24.79;58.64;98308.83;223582;181;138417;-64
2023/07/29 16:33:03;;;;;;;2.90;1.70;;;;;;;24.76;58.82;98310.45;223883;181;130149;-62
2023/07/29 16:38:20;;;;;;;3.50;1.70;;;;;;;24.71;58.70;98305.58;223778;181;145787;-63
2023/07/29 16:43:47;;;;;;;12.80;8.90;;;;;;;24.69;59.32;98298.56;223621;181;138313;-61
2023/07/29 16:48:57;;;;;;;3.60;2.00;;;;;;;24.69;59.22;98297.45;223711;182;136907;-64
2023/07/29 16:54:00;;;;;;;1.80;1.60;;;;;;;24.65;59.41;98299.58;223694;182;147148;-61
2023/07/29 17:02:08;;;;;;;2.90;2.10;;;;;;;24.63;59.80;98281.22;221518;193;665813;-62
2023/07/29 17:07:12;;;;;;;4.30;2.10;;;;;;;24.60;60.09;98275.61;223459;184;136255;-65
2023/07/29 17:12:15;;;;;;;1.70;1.50;;;;;;;24.61;60.46;98272.17;223508;184;144110;-63
2023/07/29 17:23:59;;;;;;;3.80;1.80;;;;;;;24.60;60.73;98258.20;223501;183;136999;-63
2023/07/29 17:29:03;;;;;;;4.40;2.00;;;;;;;24.62;60.66;98255.81;223687;183;143338;-63
2023/07/29 17:34:06;;;;;;;30.70;23.10;;;;;;;24.58;59.77;98249.11;223546;184;138827;-64
2023/07/29 17:39:09;;;;;;;4.80;3.10;;;;;;;24.54;59.72;98242.48;223477;184;137095;-64
2023/07/29 17:44:12;;;;;;;4.00;2.90;;;;;;;24.52;59.72;98241.67;223609;183;143340;-71
2023/07/29 17:49:16;;;;;;;4.90;2.90;;;;;;;24.50;60.05;98240.70;223590;182;138944;-60
2023/07/29 17:54:20;;;;;;;3.50;2.10;;;;;;;24.46;60.11;98244.55;223601;183;136959;-66
2023/07/29 17:59:35;;;;;;;4.10;2.20;;;;;;;24.41;60.44;98245.02;223580;183;145313;-66
2023/07/29 18:04:40;;;;;;;3.00;2.10;;;;;;;24.38;60.54;98240.73;223524;183;138365;-67
2023/07/29 18:09:44;;;;;;;3.10;2.20;;;;;;;24.39;60.87;98234.66;223535;184;136560;-63
2023/07/29 18:14:48;;;;;;;7.10;2.40;;;;;;;24.37;61.03;98225.19;223544;183;145564;-66
2023/07/29 18:19:53;;;;;;;3.30;2.00;;;;;;;24.37;61.67;98222.46;223417;184;139567;-66
2023/07/29 18:24:59;;;;;;;4.10;1.90;;;;;;;24.38;61.86;98221.03;223564;184;265868;-66
2023/07/29 18:30:03;;;;;;;5.40;1.90;;;;;;;24.38;61.38;98231.13;223579;183;146191;-67
2023/07/29 18:35:09;;;;;;;4.60;2.10;;;;;;;24.39;61.61;98236.28;223456;184;138936;-64
2023/07/29 18:40:12;;;;;;;2.80;2.00;;;;;;;24.34;61.62;98237.73;223541;184;136891;-66
2023/07/29 18:45:15;;;;;;;3.80;2.50;;;;;;;24.27;62.30;98253.29;223573;183;145743;-65
2023/07/29 18:50:19;;;;;;;5.90;2.60;;;;;;;24.29;62.70;98262.39;223555;184;138994;-65
2023/07/29 18:55:22;;;;;;;4.60;2.30;;;;;;;24.34;62.64;98273.29;223564;184;136677;-64
2023/07/29 19:00:25;;;;;;;3.60;2.40;;;;;;;24.38;63.38;98281.39;223579;183;145361;-63
2023/07/29 19:05:29;;;;;;;83.90;71.30;;;;;;;24.37;62.72;98279.41;223508;184;139050;-65
2023/07/29 19:10:32;;;;;;;16.50;14.80;;;;;;;24.31;62.45;98283.73;223470;183;137789;-66
2023/07/29 19:15:36;;;;;;;6.60;4.10;;;;;;;24.27;62.54;98282.05;223570;183;146152;-63
2023/07/29 19:20:42;;;;;;;6.10;3.80;;;;;;;24.23;62.61;98293.48;223573;183;138314;-65
2023/07/29 19:25:50;;;;;;;5.10;2.80;;;;;;;24.21;62.62;98291.34;223503;184;137484;-64
2023/07/29 19:30:54;;;;;;;5.30;2.70;;;;;;;24.20;62.49;98282.84;223647;184;145066;-65
2023/07/29 19:35:58;;;;;;;3.20;2.40;;;;;;;24.25;62.46;98285.77;223510;183;138415;-70
2023/07/29 19:41:02;;;;;;;5.90;3.20;;;;;;;24.34;62.11;98278.35;223591;184;137296;-65
2023/07/29 19:46:07;;;;;;;4.20;3.00;;;;;;;24.36;61.83;98276.98;223530;184;145950;-63
2023/07/29 19:51:16;;;;;;;64.20;53.80;;;;;;;24.35;62.00;98276.25;223595;183;139144;-62
2023/07/29 19:56:19;;;;;;;10.20;5.90;;;;;;;24.29;62.35;98269.16;223645;183;138264;-62
2023/07/29 20:01:24;;;;;;;5.10;3.30;;;;;;;24.24;62.63;98266.08;223506;184;145949;-62
2023/07/29 20:06:41;;;;;;;4.40;3.00;;;;;;;24.11;62.48;98271.48;223481;184;139200;-64
2023/07/29 20:11:45;;;;;;;6.90;3.40;;;;;;;23.96;62.51;98278.69;223550;183;139041;-62
2023/07/29 20:16:48;;;;;;;6.40;3.50;;;;;;;23.86;62.82;98277.83;223612;183;145600;-63
2023/07/29 20:21:51;;;;;;;5.30;3.40;;;;;;;23.78;62.82;98280.34;223571;183;138909;-64
2023/07/29 20:26:54;;;;;;;6.20;3.10;;;;;;;23.69;63.31;98277.19;223623;184;137190;-68
2023/07/29 20:31:58;;;;;;;5.70;3.50;;;;;;;23.70;63.89;98279.54;223570;183;146668;-70
2023/07/29 20:37:01;;;;;;;7.60;3.60;;;;;;;23.77;63.81;98278.52;223565;183;139092;-71
2023/07/29 20:42:05;;;;;;;6.70;3.50;;;;;;;23.78;63.81;98287.68;223671;183;137315;-67
2023/07/29 20:47:10;;;;;;;6.10;3.70;;;;;;;23.81;63.86;98288.45;223698;183;145324;-68
2023/07/29 20:52:23;;;;;;;5.10;3.50;;;;;;;23.68;64.00;98287.59;223731;182;138459;-70
2023/07/29 20:57:26;;;;;;;5.00;3.40;;;;;;;23.54;64.11;98295.74;223736;183;136755;-70
2023/07/29 21:02:29;;;;;;;6.10;3.50;;;;;;;23.49;64.04;98299.11;223778;182;145938;-68
2023/07/29 21:07:33;;;;;;;7.30;3.10;;;;;;;23.37;64.44;98306.59;223599;182;138364;-67
2023/07/29 21:12:36;;;;;;;6.80;3.50;;;;;;;23.28;64.99;98309.48;223714;183;136577;-68
2023/07/29 21:17:46;;;;;;;4.10;2.90;;;;;;;23.20;64.93;98312.55;223700;182;145928;-64
2023/07/29 21:22:49;;;;;;;6.30;2.90;;;;;;;23.17;64.42;98307.02;223799;182;138862;-68
2023/07/29 21:27:53;;;;;;;5.00;2.60;;;;;;;23.23;63.25;98308.62;223675;182;137453;-66
2023/07/29 21:32:56;;;;;;;5.50;2.30;;;;;;;23.29;63.05;98311.90;223811;182;145827;-68
2023/07/29 21:38:00;;;;;;;4.30;2.60;;;;;;;23.30;62.29;98313.46;223637;182;139163;-74
2023/07/29 21:43:19;;;;;;;5.50;2.60;;;;;;;23.28;62.10;98314.93;223702;182;137152;-68
2023/07/29 21:48:22;;;;;;;3.60;2.50;;;;;;;23.25;61.73;98323.55;223751;182;147696;-65
2023/07/29 21:53:26;;;;;;;4.10;1.90;;;;;;;23.23;61.58;98319.77;223711;182;139419;-64
2023/07/29 21:58:29;;;;;;;4.20;2.20;;;;;;;23.21;61.65;98325.09;223683;183;139981;-66
2023/07/29 22:03:33;;;;;;;5.20;2.40;;;;;;;23.19;61.73;98321.56;223770;182;146203;-67
2023/07/29 22:08:36;;;;;;;4.10;2.50;;;;;;;23.15;61.69;98326.75;223668;182;139073;-61
2023/07/29 22:13:40;;;;;;;4.20;2.40;;;;;;;23.08;61.60;98329.47;223781;182;137161;-66
2023/07/29 22:18:43;;;;;;;4.70;2.40;;;;;;;23.04;61.49;98327.79;223744;182;145939;-67
2023/07/29 22:23:46;;;;;;;4.40;2.40;;;;;;;22.97;61.32;98331.73;223699;182;138465;-67
2023/07/29 22:29:03;;;;;;;3.90;2.60;;;;;;;22.89;61.68;98340.39;223707;182;137078;-66
2023/07/29 22:34:06;;;;;;;3.70;2.50;;;;;;;22.87;61.55;98346.45;223647;182;147196;-61
2023/07/29 22:39:09;;;;;;;6.80;2.50;;;;;;;22.83;61.41;98345.16;223780;182;138760;-63
2023/07/29 22:44:16;;;;;;;4.40;2.20;;;;;;;22.81;61.52;98351.59;223682;182;136605;-64
2023/07/29 22:49:29;;;;;;;4.70;2.40;;;;;;;22.75;61.82;98350.11;223743;182;145249;-66
2023/07/29 22:54:32;;;;;;;5.60;3.10;;;;;;;22.75;61.73;98339.16;223679;182;139399;-63
2023/07/29 22:59:35;;;;;;;5.30;2.70;;;;;;;22.74;61.69;98347.37;223604;183;136531;-65
2023/07/29 23:04:38;;;;;;;4.60;2.50;;;;;;;22.75;61.61;98350.68;223740;182;145085;-63
2023/07/29 23:09:42;;;;;;;3.60;2.40;;;;;;;22.75;61.82;98356.52;223612;182;138437;-67
2023/07/29 23:16:21;;;;;;;3.20;2.30;;;;;;;22.71;61.72;98363.53;220321;194;675883;-63
2023/07/29 23:21:27;;;;;;;3.10;2.30;;;;;;;22.48;62.14;98364.48;223589;183;136365;-62
2023/07/29 23:26:42;;;;;;;3.90;2.50;;;;;;;22.31;62.53;98359.33;223622;184;143515;-63
2023/07/29 23:31:45;;;;;;;3.70;2.40;;;;;;;22.14;63.04;98362.64;223568;183;138697;-64
2023/07/29 23:36:49;;;;;;;4.80;2.30;;;;;;;21.99;63.39;98359.94;223641;183;136490;-63
2023/07/29 23:41:52;;;;;;;7.70;2.40;;;;;;;21.89;63.86;98358.15;223544;183;144692;-64
2023/07/29 23:46:57;;;;;;;4.00;2.50;;;;;;;21.80;64.16;98360.09;223488;183;138393;-63
2023/07/29 23:52:05;;;;;;;5.30;2.90;;;;;;;21.77;64.43;98356.16;223992;181;136855;-64
2023/07/29 23:57:08;;;;;;;7.50;2.80;;;;;;;21.78;64.67;98354.73;223860;181;143793;-64
